sensor_id;sensor_type;location;lat;lon;timestamp;P1;durP1;ratioP1;P2;durP2;ratioP2
76591;SDS011;65481;47.600;19.682;2024-02-23T00:02:59;2.85;;;1.27;;
76591;SDS011;65481;47.600;19.682;2024-02-23T00:08:00;2.05;;;1.35;;
76591;SDS011;65481;47.600;19.682;2024-02-23T00:13:01;1.80;;;1.13;;
76591;SDS011;65481;47.600;19.682;2024-02-23T00:18:02;3.42;;;1.20;;
76591;SDS011;65481;47.600;19.682;2024-02-23T00:23:04;2.50;;;1.42;;
76591;SDS011;65481;47.600;19.682;2024-02-23T00:28:05;3.22;;;1.67;;
76591;SDS011;65481;47.600;19.682;2024-02-23T00:33:05;2.25;;;1.30;;
76591;SDS011;65481;47.600;19.682;2024-02-23T00:38:06;2.22;;;1.27;;
76591;SDS011;65481;47.600;19.682;2024-02-23T00:43:07;1.63;;;1.27;;
76591;SDS011;65481;47.600;19.682;2024-02-23T00:48:08;2.28;;;1.38;;
76591;SDS011;65481;47.600;19.682;2024-02-23T00:53:09;2.25;;;1.23;;
76591;SDS011;65481;47.600;19.682;2024-02-23T00:58:10;2.78;;;1.77;;
76591;SDS011;65481;47.600;19.682;2024-02-23T01:03:10;2.30;;;1.20;;
76591;SDS011;65481;47.600;19.682;2024-02-23T01:08:11;2.78;;;1.30;;
76591;SDS011;65481;47.600;19.682;2024-02-23T01:13:11;5.57;;;1.60;;
76591;SDS011;65481;47.600;19.682;2024-02-23T01:18:12;3.22;;;1.65;;
76591;SDS011;65481;47.600;19.682;2024-02-23T01:23:13;2.45;;;1.50;;
76591;SDS011;65481;47.600;19.682;2024-02-23T01:28:13;1.58;;;1.27;;
76591;SDS011;65481;47.600;19.682;2024-02-23T01:33:14;3.85;;;1.50;;
76591;SDS011;65481;47.600;19.682;2024-02-23T01:38:15;2.08;;;1.38;;
76591;SDS011;65481;47.600;19.682;2024-02-23T01:43:20;2.72;;;1.50;;
76591;SDS011;65481;47.600;19.682;2024-02-23T01:48:21;2.33;;;1.20;;
76591;SDS011;65481;47.600;19.682;2024-02-23T01:53:22;3.35;;;1.67;;
76591;SDS011;65481;47.600;19.682;2024-02-23T01:58:24;3.50;;;1.38;;
76591;SDS011;65481;47.600;19.682;2024-02-23T02:03:25;2.25;;;1.50;;
76591;SDS011;65481;47.600;19.682;2024-02-23T02:08:26;2.22;;;1.60;;
76591;SDS011;65481;47.600;19.682;2024-02-23T02:13:30;3.22;;;1.58;;
76591;SDS011;65481;47.600;19.682;2024-02-23T02:18:31;2.55;;;1.27;;
76591;SDS011;65481;47.600;19.682;2024-02-23T02:23:31;2.92;;;1.70;;
76591;SDS011;65481;47.600;19.682;2024-02-23T02:28:32;2.65;;;1.92;;
76591;SDS011;65481;47.600;19.682;2024-02-23T02:33:33;3.60;;;1.55;;
76591;SDS011;65481;47.600;19.682;2024-02-23T02:38:33;2.30;;;1.30;;
76591;SDS011;65481;47.600;19.682;2024-02-23T02:43:34;3.58;;;1.70;;
76591;SDS011;65481;47.600;19.682;2024-02-23T02:48:35;4.57;;;1.75;;
76591;SDS011;65481;47.600;19.682;2024-02-23T02:53:35;2.42;;;1.73;;
76591;SDS011;65481;47.600;19.682;2024-02-23T02:58:36;2.08;;;1.33;;
76591;SDS011;65481;47.600;19.682;2024-02-23T03:03:37;4.57;;;1.60;;
76591;SDS011;65481;47.600;19.682;2024-02-23T03:08:37;2.33;;;1.30;;
76591;SDS011;65481;47.600;19.682;2024-02-23T03:13:38;2.70;;;1.52;;
76591;SDS011;65481;47.600;19.682;2024-02-23T03:18:39;2.97;;;1.75;;
76591;SDS011;65481;47.600;19.682;2024-02-23T03:23:41;2.58;;;1.65;;
76591;SDS011;65481;47.600;19.682;2024-02-23T03:28:42;2.40;;;1.40;;
76591;SDS011;65481;47.600;19.682;2024-02-23T03:33:43;2.95;;;1.40;;
76591;SDS011;65481;47.600;19.682;2024-02-23T03:38:44;2.35;;;1.48;;
76591;SDS011;65481;47.600;19.682;2024-02-23T03:43:44;2.63;;;1.70;;
76591;SDS011;65481;47.600;19.682;2024-02-23T03:48:45;2.53;;;1.65;;
76591;SDS011;65481;47.600;19.682;2024-02-23T03:53:46;3.85;;;1.67;;
76591;SDS011;65481;47.600;19.682;2024-02-23T03:58:47;3.35;;;1.77;;
76591;SDS011;65481;47.600;19.682;2024-02-23T04:03:48;3.45;;;1.88;;
76591;SDS011;65481;47.600;19.682;2024-02-23T04:08:48;2.35;;;1.70;;
76591;SDS011;65481;47.600;19.682;2024-02-23T04:13:50;3.75;;;2.03;;
76591;SDS011;65481;47.600;19.682;2024-02-23T04:18:50;3.05;;;1.98;;
76591;SDS011;65481;47.600;19.682;2024-02-23T04:23:52;3.40;;;1.83;;
76591;SDS011;65481;47.600;19.682;2024-02-23T04:28:55;4.80;;;2.40;;
76591;SDS011;65481;47.600;19.682;2024-02-23T04:34:43;3.92;;;2.13;;
76591;SDS011;65481;47.600;19.682;2024-02-23T04:39:52;2.75;;;1.90;;
76591;SDS011;65481;47.600;19.682;2024-02-23T04:45:30;2.17;;;1.92;;
76591;SDS011;65481;47.600;19.682;2024-02-23T15:34:28;19.20;;;9.18;;
76591;SDS011;65481;47.600;19.682;2024-02-23T18:46:33;22.13;;;10.55;;
76591;SDS011;65481;47.600;19.682;2024-02-23T18:52:40;16.08;;;9.77;;
76591;SDS011;65481;47.600;19.682;2024-02-23T18:58:07;17.40;;;9.15;;
76591;SDS011;65481;47.600;19.682;2024-02-23T19:03:26;18.75;;;10.30;;
76591;SDS011;65481;47.600;19.682;2024-02-23T19:08:45;19.98;;;10.55;;
76591;SDS011;65481;47.600;19.682;2024-02-23T19:14:04;19.52;;;8.85;;
76591;SDS011;65481;47.600;19.682;2024-02-23T19:19:23;18.33;;;8.93;;
76591;SDS011;65481;47.600;19.682;2024-02-23T19:24:42;14.45;;;9.27;;
76591;SDS011;65481;47.600;19.682;2024-02-23T19:30:01;16.75;;;8.95;;
76591;SDS011;65481;47.600;19.682;2024-02-23T19:35:22;14.48;;;8.40;;
76591;SDS011;65481;47.600;19.682;2024-02-23T19:40:41;14.40;;;8.32;;
76591;SDS011;65481;47.600;19.682;2024-02-23T19:45:59;17.05;;;10.07;;
76591;SDS011;65481;47.600;19.682;2024-02-23T19:51:18;19.77;;;12.10;;
76591;SDS011;65481;47.600;19.682;2024-02-23T19:56:38;15.55;;;9.38;;
76591;SDS011;65481;47.600;19.682;2024-02-23T20:01:57;15.20;;;8.95;;
76591;SDS011;65481;47.600;19.682;2024-02-23T20:07:16;21.08;;;11.23;;
76591;SDS011;65481;47.600;19.682;2024-02-23T20:12:37;16.95;;;10.07;;
76591;SDS011;65481;47.600;19.682;2024-02-23T20:17:56;15.25;;;7.60;;
76591;SDS011;65481;47.600;19.682;2024-02-23T20:23:18;17.55;;;10.27;;
76591;SDS011;65481;47.600;19.682;2024-02-23T20:28:36;16.25;;;9.50;;
76591;SDS011;65481;47.600;19.682;2024-02-23T20:33:55;16.13;;;9.48;;
76591;SDS011;65481;47.600;19.682;2024-02-23T20:39:14;10.73;;;7.28;;
76591;SDS011;65481;47.600;19.682;2024-02-23T20:44:33;14.45;;;7.40;;
76591;SDS011;65481;47.600;19.682;2024-02-23T20:49:52;13.60;;;7.43;;
76591;SDS011;65481;47.600;19.682;2024-02-23T20:55:11;17.90;;;7.70;;
76591;SDS011;65481;47.600;19.682;2024-02-23T21:00:31;12.75;;;6.88;;
76591;SDS011;65481;47.600;19.682;2024-02-23T21:05:50;18.80;;;7.70;;
76591;SDS011;65481;47.600;19.682;2024-02-23T21:11:09;15.00;;;7.53;;
76591;SDS011;65481;47.600;19.682;2024-02-23T21:16:28;14.98;;;7.43;;
76591;SDS011;65481;47.600;19.682;2024-02-23T21:21:46;15.63;;;7.57;;
76591;SDS011;65481;47.600;19.682;2024-02-23T21:27:05;15.07;;;6.90;;
76591;SDS011;65481;47.600;19.682;2024-02-23T21:32:24;17.17;;;9.15;;
76591;SDS011;65481;47.600;19.682;2024-02-23T21:37:43;12.45;;;6.90;;
76591;SDS011;65481;47.600;19.682;2024-02-23T21:43:03;12.07;;;6.75;;
76591;SDS011;65481;47.600;19.682;2024-02-23T21:48:23;13.80;;;7.90;;
76591;SDS011;65481;47.600;19.682;2024-02-23T21:53:42;12.30;;;7.40;;
76591;SDS011;65481;47.600;19.682;2024-02-23T21:59:01;14.60;;;6.85;;
76591;SDS011;65481;47.600;19.682;2024-02-23T22:04:20;12.68;;;6.93;;
76591;SDS011;65481;47.600;19.682;2024-02-23T22:09:39;12.65;;;6.03;;
76591;SDS011;65481;47.600;19.682;2024-02-23T22:15:00;12.70;;;6.18;;
76591;SDS011;65481;47.600;19.682;2024-02-23T22:20:21;9.85;;;5.75;;
76591;SDS011;65481;47.600;19.682;2024-02-23T22:25:40;12.13;;;6.53;;
76591;SDS011;65481;47.600;19.682;2024-02-23T22:30:59;10.98;;;5.82;;
76591;SDS011;65481;47.600;19.682;2024-02-23T22:36:18;14.80;;;6.32;;
76591;SDS011;65481;47.600;19.682;2024-02-23T22:41:37;10.20;;;6.70;;
76591;SDS011;65481;47.600;19.682;2024-02-23T22:46:57;11.88;;;6.68;;
76591;SDS011;65481;47.600;19.682;2024-02-23T22:52:16;13.65;;;6.40;;
76591;SDS011;65481;47.600;19.682;2024-02-23T22:57:36;10.40;;;5.68;;
76591;SDS011;65481;47.600;19.682;2024-02-23T23:02:56;11.32;;;5.93;;
76591;SDS011;65481;47.600;19.682;2024-02-23T23:08:15;10.55;;;5.43;;
76591;SDS011;65481;47.600;19.682;2024-02-23T23:13:34;10.68;;;5.90;;
76591;SDS011;65481;47.600;19.682;2024-02-23T23:18:54;11.40;;;6.10;;
76591;SDS011;65481;47.600;19.682;2024-02-23T23:24:13;13.15;;;6.78;;
76591;SDS011;65481;47.600;19.682;2024-02-23T23:29:32;9.90;;;5.05;;
76591;SDS011;65481;47.600;19.682;2024-02-23T23:34:51;11.63;;;5.47;;
76591;SDS011;65481;47.600;19.682;2024-02-23T23:40:10;8.50;;;5.18;;
76591;SDS011;65481;47.600;19.682;2024-02-23T23:45:30;10.50;;;5.50;;
76591;SDS011;65481;47.600;19.682;2024-02-23T23:50:49;10.93;;;5.53;;
76591;SDS011;65481;47.600;19.682;2024-02-23T23:56:08;11.52;;;5.18;;
